createdAt,value
2022-12-03T08:05:11.577Z,92.70
2022-12-03T08:07:38.624Z,92.60
2022-12-03T08:10:06.600Z,92.50
2022-12-03T08:12:40.392Z,92.40
2022-12-03T08:15:11.871Z,92.40
2022-12-03T08:17:40.335Z,92.70
2022-12-03T08:20:15.246Z,92.50
2022-12-03T08:22:43.626Z,92.20
2022-12-03T08:25:20.843Z,92.10
2022-12-03T12:06:39.458Z,84.10
2022-12-03T12:09:06.363Z,83.80
2022-12-03T12:11:36.166Z,84.10
2022-12-03T12:14:05.577Z,83.90
2022-12-03T12:16:55.955Z,83.70
2022-12-03T12:19:36.521Z,84.10
2022-12-03T12:22:26.278Z,83.70
2022-12-03T12:24:55.170Z,83.80
2022-12-03T12:27:37.853Z,83.50
2022-12-03T12:30:13.909Z,83.90
2022-12-03T12:32:44.831Z,84.10
2022-12-03T12:35:26.410Z,84.00
2022-12-03T12:38:02.774Z,84.20
2022-12-03T12:40:32.212Z,84.20
2022-12-03T12:43:24.890Z,84.50
2022-12-03T12:45:57.086Z,84.10
2022-12-03T12:48:28.072Z,84.10
2022-12-03T12:51:18.798Z,84.20
2022-12-03T12:53:45.707Z,84.60
2022-12-03T12:56:30.284Z,85.00
2022-12-03T12:59:01.098Z,84.60
2022-12-03T13:01:30.403Z,84.50
2022-12-03T13:03:58.401Z,85.00
2022-12-03T13:06:30.050Z,84.90
2022-12-03T13:08:58.730Z,84.00
2022-12-03T13:11:25.557Z,84.60
2022-12-03T13:13:52.973Z,84.60
2022-12-03T13:16:27.867Z,85.40
2022-12-03T13:18:57.124Z,85.70
2022-12-03T19:57:21.657Z,93.50
2022-12-03T19:59:50.122Z,93.70
2022-12-03T20:02:17.094Z,93.80
2022-12-03T20:04:43.996Z,93.90
2022-12-03T20:07:10.824Z,94.30
2022-12-03T20:09:37.792Z,94.60
2022-12-03T20:12:04.801Z,94.40
2022-12-03T20:14:31.628Z,94.60
2022-12-03T20:16:58.589Z,94.70
2022-12-03T20:19:25.510Z,94.80
2022-12-03T20:21:53.710Z,95.00
2022-12-03T20:24:22.183Z,95.10
2022-12-03T20:26:49.029Z,94.90
2022-12-03T20:29:15.826Z,95.10
2022-12-03T20:31:42.755Z,95.20
2022-12-03T20:34:11.396Z,95.30
2022-12-03T20:36:40.926Z,95.40
2022-12-03T20:39:08.423Z,95.40
2022-12-03T20:41:36.207Z,95.60
2022-12-03T20:44:03.896Z,95.70
2022-12-03T20:46:31.574Z,96.00
2022-12-03T20:48:59.286Z,96.30
2022-12-03T20:51:31.074Z,96.40
2022-12-03T20:53:59.352Z,96.70
2022-12-03T20:56:31.727Z,96.50
2022-12-03T20:59:06.846Z,96.50
2022-12-03T21:01:36.019Z,96.20
2022-12-03T21:04:04.687Z,96.40
2022-12-03T21:06:32.463Z,96.40
2022-12-03T21:09:01.733Z,96.60
2022-12-03T21:11:31.038Z,96.50
2022-12-03T21:13:58.434Z,96.20
2022-12-03T21:16:52.043Z,96.40
2022-12-03T21:19:17.498Z,96.10
2022-12-03T21:21:44.375Z,96.10
2022-12-03T21:24:13.358Z,96.20
2022-12-03T21:26:40.953Z,96.50
2022-12-03T21:29:08.015Z,96.20
2022-12-03T21:31:37.232Z,96.30
2022-12-03T21:34:05.045Z,96.20
2022-12-03T21:36:32.381Z,96.20
2022-12-03T21:38:59.339Z,96.10
2022-12-03T21:41:26.566Z,96.10
2022-12-03T21:43:53.561Z,96.20
2022-12-03T21:47:12.407Z,96.10
2022-12-03T21:49:07.603Z,96.10
2022-12-03T21:51:34.590Z,96.10
2022-12-03T21:54:01.511Z,96.20
2022-12-03T21:56:30.807Z,96.10
2022-12-03T21:58:57.887Z,96.10
2022-12-03T22:01:25.467Z,96.00
2022-12-03T22:03:53.530Z,96.00
2022-12-03T22:06:21.188Z,96.10
2022-12-03T22:08:48.141Z,96.30
2022-12-03T22:11:25.217Z,96.40
2022-12-03T22:13:52.138Z,96.30
2022-12-03T22:16:21.029Z,96.50
2022-12-03T22:18:48.737Z,96.60
2022-12-03T22:21:18.722Z,96.50
2022-12-03T22:23:45.830Z,96.50
2022-12-03T22:26:16.433Z,96.50
2022-12-03T22:28:48.621Z,96.70
2022-12-03T22:31:17.084Z,96.70
2022-12-03T22:33:48.006Z,96.40
2022-12-03T22:36:20.507Z,96.60
2022-12-03T22:38:48.246Z,96.50
2022-12-03T22:41:15.739Z,96.40
2022-12-03T22:43:42.940Z,96.30
2022-12-03T22:46:12.585Z,96.30
2022-12-03T22:48:41.438Z,96.50
2022-12-03T22:51:24.483Z,96.20
2022-12-03T22:53:56.235Z,96.50
2022-12-03T22:56:23.517Z,96.20
